createdAt,value
2019-03-04T00:01:39.935Z,14.20
2019-03-04T00:04:11.220Z,14.20
2019-03-04T00:06:42.536Z,14.20
2019-03-04T00:09:13.964Z,14.20
2019-03-04T00:11:45.374Z,14.20
2019-03-04T00:14:16.792Z,14.20
2019-03-04T00:16:48.085Z,14.10
2019-03-04T00:19:19.367Z,14.10
2019-03-04T00:21:51.471Z,14.10
2019-03-04T00:24:22.801Z,14.10
2019-03-04T00:26:54.127Z,14.10
2019-03-04T00:29:25.490Z,14.10
2019-03-04T00:31:56.817Z,14.10
2019-03-04T00:34:28.077Z,14.10
2019-03-04T00:36:59.408Z,14.10
2019-03-04T00:39:30.694Z,14.10
2019-03-04T00:42:01.981Z,14.10
2019-03-04T00:44:33.311Z,14.10
2019-03-04T00:47:04.768Z,14.10
2019-03-04T00:49:35.964Z,14.10
2019-03-04T00:52:07.355Z,14.10
2019-03-04T00:54:38.691Z,14.10
2019-03-04T00:57:12.342Z,14.10
2019-03-04T00:59:43.682Z,14.10
2019-03-04T01:02:15.012Z,14.10
2019-03-04T01:04:46.285Z,14.10
2019-03-04T01:07:17.705Z,14.10
2019-03-04T01:09:49.099Z,14.10
2019-03-04T01:12:20.496Z,14.10
2019-03-04T01:14:51.689Z,14.10
2019-03-04T01:17:23.173Z,14.10
2019-03-04T01:19:54.500Z,14.10
2019-03-04T01:22:25.899Z,14.00
2019-03-04T01:24:57.157Z,14.00
2019-03-04T01:27:28.584Z,14.00
2019-03-04T01:29:59.771Z,14.00
2019-03-04T01:32:31.134Z,14.00
2019-03-04T01:35:02.389Z,13.90
2019-03-04T01:37:33.793Z,13.90
2019-03-04T01:40:05.477Z,13.90
2019-03-04T01:42:36.806Z,14.00
2019-03-04T01:45:08.862Z,13.90
2019-03-04T01:47:40.286Z,13.90
2019-03-04T01:50:14.457Z,13.90
2019-03-04T01:52:46.240Z,13.80
2019-03-04T01:55:18.033Z,13.80
2019-03-04T01:57:49.440Z,13.80
2019-03-04T02:00:20.872Z,13.80
2019-03-04T02:02:52.243Z,13.70
2019-03-04T02:05:24.648Z,13.70
2019-03-04T02:07:55.938Z,13.70
2019-03-04T02:10:27.268Z,13.60
2019-03-04T02:12:59.630Z,13.60
2019-03-04T02:15:31.061Z,13.60
2019-03-04T02:18:02.461Z,13.50
2019-03-04T02:20:33.804Z,13.50
2019-03-04T02:23:06.077Z,13.50
2019-03-04T02:26:05.725Z,13.40
2019-03-04T02:28:37.149Z,13.40
2019-03-04T02:31:08.514Z,13.30
2019-03-04T02:33:39.789Z,13.30
2019-03-04T02:36:11.158Z,13.30
2019-03-04T02:38:42.514Z,13.30
2019-03-04T02:41:13.859Z,13.30
2019-03-04T02:43:45.176Z,13.30
2019-03-04T02:46:16.454Z,13.30
2019-03-04T02:48:47.744Z,13.30
2019-03-04T02:51:19.070Z,13.40
2019-03-04T02:53:51.338Z,13.40
2019-03-04T02:56:22.669Z,13.40
2019-03-04T02:58:54.009Z,13.40
2019-03-04T03:01:25.278Z,13.40
2019-03-04T03:03:56.648Z,13.40
2019-03-04T03:06:27.906Z,13.50
2019-03-04T03:08:59.276Z,13.50
2019-03-04T03:11:30.626Z,13.50
2019-03-04T03:14:01.925Z,13.50
2019-03-04T03:16:33.255Z,13.50
2019-03-04T03:19:04.630Z,13.50
2019-03-04T03:21:35.839Z,13.50
2019-03-04T03:24:08.008Z,13.50
2019-03-04T03:26:39.365Z,13.50
2019-03-04T03:29:10.738Z,13.50
2019-03-04T03:31:41.922Z,13.50
2019-03-04T03:34:13.353Z,13.50
2019-03-04T03:36:44.881Z,13.50
2019-03-04T03:39:16.168Z,13.50
2019-03-04T03:41:47.358Z,13.50
2019-03-04T03:44:18.679Z,13.50
2019-03-04T03:46:50.024Z,13.50
2019-03-04T03:49:21.377Z,13.50
2019-03-04T03:51:52.727Z,13.50
2019-03-04T03:54:24.078Z,13.50
2019-03-04T03:56:55.490Z,13.50
2019-03-04T03:59:26.870Z,13.50
2019-03-04T04:01:58.219Z,13.50
2019-03-04T04:04:29.639Z,13.50
2019-03-04T04:07:00.889Z,13.50
2019-03-04T04:09:32.220Z,13.60
2019-03-04T04:12:03.606Z,13.60
2019-03-04T04:14:34.946Z,13.60
2019-03-04T04:17:07.265Z,13.60
2019-03-04T04:19:38.606Z,13.60
2019-03-04T04:22:09.944Z,13.60
2019-03-04T04:24:42.585Z,13.60
2019-03-04T04:27:14.015Z,13.60
2019-03-04T04:29:45.394Z,13.60
2019-03-04T04:32:16.585Z,13.60
2019-03-04T04:34:48.017Z,13.60
2019-03-04T04:37:19.277Z,13.60
2019-03-04T04:39:50.569Z,13.60
2019-03-04T04:42:21.921Z,13.60
2019-03-04T04:44:53.228Z,13.60
2019-03-04T04:47:24.612Z,13.60
2019-03-04T04:49:56.000Z,13.60
2019-03-04T04:52:27.257Z,13.60
2019-03-04T04:54:58.612Z,13.60
2019-03-04T04:57:29.885Z,13.60
2019-03-04T05:00:01.116Z,13.60
2019-03-04T05:02:33.700Z,13.60
2019-03-04T05:05:05.310Z,13.60
2019-03-04T05:07:36.715Z,13.60
2019-03-04T05:10:11.375Z,13.60
2019-03-04T05:12:42.729Z,13.60
2019-03-04T05:15:14.201Z,13.60
2019-03-04T05:17:45.583Z,13.60
2019-03-04T05:20:18.974Z,13.60
2019-03-04T05:22:50.325Z,13.60
2019-03-04T05:25:21.756Z,13.60
2019-03-04T05:27:53.087Z,13.60
2019-03-04T05:30:24.500Z,13.60
2019-03-04T05:32:55.759Z,13.60
2019-03-04T05:35:27.256Z,13.60
2019-03-04T05:37:58.602Z,13.60
2019-03-04T05:40:29.957Z,13.60
2019-03-04T05:43:11.454Z,13.60
2019-03-04T05:45:42.844Z,13.60
2019-03-04T05:48:14.230Z,13.60
2019-03-04T05:50:45.658Z,13.60
2019-03-04T05:53:17.008Z,13.60
2019-03-04T05:55:48.413Z,13.60
2019-03-04T05:58:19.740Z,13.50
2019-03-04T06:01:30.689Z,13.50
2019-03-04T06:04:13.565Z,13.50
2019-03-04T06:06:54.389Z,13.60
2019-03-04T06:09:25.580Z,13.60
2019-03-04T06:11:56.900Z,13.60
2019-03-04T06:14:40.411Z,13.60
2019-03-04T06:17:11.674Z,13.60
2019-03-04T06:19:44.048Z,13.60
2019-03-04T06:22:16.546Z,13.70
2019-03-04T06:25:00.051Z,13.70
2019-03-04T06:27:32.272Z,13.70
2019-03-04T06:30:04.036Z,13.70
2019-03-04T06:32:35.373Z,13.70
2019-03-04T06:35:07.805Z,13.70
2019-03-04T06:37:40.460Z,13.70
2019-03-04T06:40:12.691Z,13.70
2019-03-04T06:42:44.118Z,13.60
2019-03-04T06:45:15.648Z,13.60
2019-03-04T06:47:47.233Z,13.60
2019-03-04T06:50:47.398Z,13.60
2019-03-04T06:53:28.664Z,13.60
2019-03-04T06:56:07.345Z,13.60
2019-03-04T06:58:42.601Z,13.60
2019-03-04T07:01:21.512Z,13.50
2019-03-04T07:03:58.858Z,13.50
2019-03-04T07:06:30.113Z,13.40
2019-03-04T07:09:07.220Z,13.40
2019-03-04T07:11:42.781Z,13.40
2019-03-04T07:14:15.104Z,13.30
2019-03-04T07:17:05.579Z,13.30
2019-03-04T07:19:38.526Z,13.30
2019-03-04T07:22:11.139Z,13.30
2019-03-04T07:24:42.491Z,13.20
2019-03-04T07:27:14.107Z,13.30
2019-03-04T07:29:45.485Z,13.30
2019-03-04T07:32:17.698Z,13.30
2019-03-04T07:34:49.025Z,13.30
2019-03-04T07:37:20.446Z,13.40
2019-03-04T07:39:51.841Z,13.40
2019-03-04T07:42:23.244Z,13.50
2019-03-04T07:44:54.690Z,13.50
2019-03-04T07:47:26.118Z,13.60
2019-03-04T07:49:57.716Z,13.60
2019-03-04T07:52:29.029Z,13.50
2019-03-04T07:55:00.383Z,13.50
2019-03-04T07:57:31.689Z,13.50
2019-03-04T08:00:03.008Z,13.50
2019-03-04T08:02:45.389Z,13.50
2019-03-04T08:05:16.821Z,13.50
2019-03-04T08:07:51.937Z,13.50
2019-03-04T08:11:07.386Z,13.50
2019-03-04T08:13:45.213Z,13.60
2019-03-04T08:16:28.431Z,13.70
2019-03-04T08:19:00.590Z,13.80
2019-03-04T08:21:31.990Z,13.90
2019-03-04T08:24:03.393Z,14.00
2019-03-04T08:26:34.701Z,14.10
2019-03-04T08:29:07.463Z,14.20
2019-03-04T08:31:38.852Z,14.30
2019-03-04T08:34:10.165Z,14.40
2019-03-04T08:36:41.636Z,14.50
2019-03-04T08:39:13.541Z,14.60
2019-03-04T08:41:45.055Z,14.60
2019-03-04T08:44:17.292Z,14.70
2019-03-04T08:46:48.744Z,14.70
2019-03-04T08:49:20.141Z,14.80
2019-03-04T08:51:51.380Z,14.80
2019-03-04T08:54:22.712Z,14.80
2019-03-04T08:57:03.268Z,14.80
2019-03-04T08:59:27.065Z,14.90
2019-03-04T09:01:58.272Z,15.00
2019-03-04T09:04:29.542Z,15.00
2019-03-04T09:07:00.752Z,15.10
2019-03-04T09:09:32.058Z,15.10
2019-03-04T09:12:03.409Z,15.20
2019-03-04T09:14:34.693Z,15.20
2019-03-04T09:17:06.797Z,15.20
2019-03-04T09:19:38.048Z,15.20
2019-03-04T09:22:09.411Z,15.20
2019-03-04T09:24:40.705Z,15.20
2019-03-04T09:27:12.077Z,15.20
2019-03-04T09:29:55.803Z,15.20
2019-03-04T09:32:27.214Z,15.20
2019-03-04T09:34:58.662Z,15.20
2019-03-04T09:37:30.046Z,15.20
2019-03-04T09:40:01.386Z,15.20
2019-03-04T09:42:32.820Z,15.20
2019-03-04T09:45:04.170Z,15.20
2019-03-04T09:47:35.641Z,15.20
2019-03-04T09:50:09.002Z,15.20
2019-03-04T09:52:40.418Z,15.20
2019-03-04T09:55:12.401Z,15.20
2019-03-04T09:57:44.918Z,15.30
2019-03-04T10:01:06.792Z,15.30
2019-03-04T10:04:29.382Z,15.20
2019-03-04T10:07:46.584Z,15.20
2019-03-04T10:10:39.666Z,15.20
2019-03-04T10:13:55.221Z,15.20
2019-03-04T10:16:53.795Z,15.20
2019-03-04T10:20:07.922Z,15.20
2019-03-04T10:23:26.441Z,15.10
2019-03-04T10:26:40.510Z,15.10
2019-03-04T10:29:45.367Z,15.00
2019-03-04T10:32:55.346Z,15.10
2019-03-04T10:35:48.370Z,15.10
2019-03-04T10:38:39.228Z,15.10
2019-03-04T10:41:41.301Z,15.10
2019-03-04T10:45:12.000Z,15.10
2019-03-04T10:47:43.454Z,15.20
2019-03-04T10:50:15.830Z,15.20
2019-03-04T10:52:47.401Z,15.20
2019-03-04T10:55:19.772Z,15.30
2019-03-04T10:57:51.264Z,15.30
2019-03-04T11:00:22.793Z,15.30
2019-03-04T11:02:55.184Z,15.40
2019-03-04T11:05:37.919Z,15.50
2019-03-04T11:08:09.337Z,15.50
2019-03-04T11:10:40.738Z,15.60
2019-03-04T11:13:12.100Z,15.60
2019-03-04T11:15:43.661Z,15.70
2019-03-04T11:18:15.643Z,15.80
2019-03-04T11:20:46.995Z,15.90
2019-03-04T11:23:18.812Z,16.10
2019-03-04T11:25:50.320Z,16.20
2019-03-04T11:28:21.756Z,16.30
2019-03-04T11:30:53.117Z,16.40
2019-03-04T11:33:24.489Z,16.40
2019-03-04T11:35:55.912Z,16.40
2019-03-04T11:38:38.695Z,16.40
2019-03-04T11:41:13.261Z,16.30
2019-03-04T11:43:44.687Z,16.30
2019-03-04T11:46:16.801Z,16.20
2019-03-04T11:48:48.213Z,16.20
2019-03-04T11:51:19.615Z,16.10
2019-03-04T11:53:51.025Z,16.10
2019-03-04T11:56:22.417Z,16.10
2019-03-04T11:58:53.787Z,16.10
2019-03-04T12:01:35.313Z,16.00
2019-03-04T12:04:07.764Z,16.00
2019-03-04T12:06:39.171Z,16.00
2019-03-04T12:09:15.481Z,15.90
2019-03-04T12:11:46.823Z,15.90
2019-03-04T12:14:18.288Z,15.90
2019-03-04T12:19:23.338Z,15.90
2019-03-04T12:21:54.782Z,15.80
2019-03-04T12:24:27.303Z,15.90
2019-03-04T12:26:59.392Z,15.80
2019-03-04T12:29:30.924Z,15.90
2019-03-04T12:32:06.220Z,15.90
2019-03-04T12:34:37.734Z,15.90
2019-03-04T12:37:09.201Z,15.90
2019-03-04T12:39:40.776Z,15.90
2019-03-04T12:42:13.240Z,15.90
2019-03-04T12:44:44.816Z,15.90
2019-03-04T12:47:17.229Z,15.90
2019-03-04T12:49:48.824Z,15.90
2019-03-04T12:52:23.229Z,15.90
2019-03-04T12:54:55.105Z,15.90
2019-03-04T12:57:26.936Z,15.90
2019-03-04T12:59:59.981Z,15.90
2019-03-04T13:02:31.389Z,15.80
2019-03-04T13:05:02.987Z,15.80
2019-03-04T13:07:35.632Z,15.70
2019-03-04T13:10:07.450Z,15.70
2019-03-04T13:12:39.106Z,15.70
2019-03-04T13:15:23.646Z,15.70
2019-03-04T13:17:56.051Z,15.70
2019-03-04T13:20:27.648Z,15.70
2019-03-04T13:22:59.182Z,15.70
2019-03-04T13:25:30.952Z,15.70
2019-03-04T13:28:08.281Z,15.70
2019-03-04T13:30:37.450Z,15.70
2019-03-04T13:33:08.954Z,15.70
2019-03-04T13:35:40.619Z,15.70
2019-03-04T13:38:12.188Z,15.70
2019-03-04T13:40:43.697Z,15.60
2019-03-04T13:43:21.792Z,15.60
2019-03-04T13:45:55.756Z,15.60
2019-03-04T13:48:27.352Z,15.60
2019-03-04T13:50:58.833Z,15.60
2019-03-04T13:53:30.638Z,15.50
2019-03-04T13:56:02.237Z,15.50
2019-03-04T13:58:33.698Z,15.50
2019-03-04T14:01:07.276Z,15.50
2019-03-04T14:03:38.788Z,15.40
2019-03-04T14:06:10.352Z,15.40
2019-03-04T14:08:41.871Z,15.40
2019-03-04T14:11:13.358Z,15.40
2019-03-04T14:13:44.894Z,15.40
2019-03-04T14:16:19.790Z,15.40
2019-03-04T14:19:03.195Z,15.40
2019-03-04T14:21:34.713Z,15.30
2019-03-04T14:24:06.178Z,15.30
2019-03-04T14:26:37.673Z,15.20
2019-03-04T14:29:09.145Z,15.20
2019-03-04T14:31:40.790Z,15.20
2019-03-04T14:34:12.160Z,15.20
2019-03-04T14:36:44.396Z,15.10
2019-03-04T14:39:16.380Z,15.10
2019-03-04T14:41:55.944Z,15.10
2019-03-04T14:44:27.313Z,15.00
2019-03-04T14:46:58.760Z,15.00
2019-03-04T14:49:30.257Z,15.00
2019-03-04T14:52:01.785Z,14.90
2019-03-04T14:54:33.161Z,14.90
2019-03-04T14:57:04.593Z,14.90
2019-03-04T14:59:36.932Z,14.90
2019-03-04T15:02:08.426Z,14.80
2019-03-04T15:04:40.041Z,14.80
2019-03-04T15:07:11.621Z,14.80
2019-03-04T15:09:49.348Z,14.70
2019-03-04T15:12:16.454Z,14.70
2019-03-04T15:14:47.973Z,14.70
2019-03-04T15:17:30.029Z,14.70
2019-03-04T15:20:08.981Z,14.70
2019-03-04T15:22:35.611Z,14.60
2019-03-04T15:25:09.108Z,14.60
2019-03-04T15:27:40.560Z,14.60
2019-03-04T15:30:12.435Z,14.50
2019-03-04T15:32:43.824Z,14.50
2019-03-04T15:35:15.194Z,14.50
2019-03-04T15:37:46.673Z,14.50
2019-03-04T15:40:18.170Z,14.40
2019-03-04T15:42:49.548Z,14.30
2019-03-04T15:45:20.918Z,14.20
2019-03-04T15:47:52.449Z,14.20
2019-03-04T15:50:23.941Z,14.10
2019-03-04T15:52:55.314Z,14.00
2019-03-04T15:55:26.688Z,13.90
2019-03-04T15:58:01.213Z,13.80
2019-03-04T16:00:32.709Z,13.80
2019-03-04T16:03:06.042Z,13.70
2019-03-04T16:05:39.092Z,13.60
2019-03-04T16:08:10.562Z,13.60
2019-03-04T16:10:41.997Z,13.50
2019-03-04T16:13:13.505Z,13.40
2019-03-04T16:15:45.275Z,13.30
2019-03-04T16:18:16.736Z,13.20
2019-03-04T16:20:48.128Z,13.20
2019-03-04T16:23:19.561Z,13.10
2019-03-04T16:25:51.053Z,13.00
2019-03-04T16:28:25.208Z,12.90
2019-03-04T16:30:56.633Z,12.90
2019-03-04T16:33:28.069Z,12.80
2019-03-04T16:35:59.414Z,12.70
2019-03-04T16:38:30.880Z,12.70
2019-03-04T16:41:02.418Z,12.70
2019-03-04T16:43:33.953Z,12.60
2019-03-04T16:46:05.570Z,12.60
2019-03-04T16:48:37.558Z,12.50
2019-03-04T16:51:09.994Z,12.40
2019-03-04T16:53:41.593Z,12.40
2019-03-04T16:56:12.976Z,12.40
2019-03-04T16:58:44.404Z,12.30
2019-03-04T17:01:16.203Z,12.30
2019-03-04T17:03:47.775Z,12.30
2019-03-04T17:06:19.268Z,12.30
2019-03-04T17:08:50.753Z,12.30
2019-03-04T17:11:22.161Z,12.20
2019-03-04T17:13:53.692Z,12.20
2019-03-04T17:16:25.552Z,12.20
2019-03-04T17:18:57.306Z,12.20
2019-03-04T17:21:28.798Z,12.10
2019-03-04T17:24:00.470Z,12.10
2019-03-04T17:26:33.398Z,12.10
2019-03-04T17:29:04.913Z,12.10
2019-03-04T17:31:38.494Z,12.10
2019-03-04T17:34:10.181Z,12.00
2019-03-04T17:36:41.473Z,12.00
2019-03-04T17:39:13.233Z,12.00
2019-03-04T17:41:44.951Z,11.90
2019-03-04T17:44:22.850Z,11.90
2019-03-04T17:46:54.224Z,11.90
2019-03-04T17:49:25.869Z,11.90
2019-03-04T17:51:57.500Z,11.80
2019-03-04T17:54:29.063Z,11.80
2019-03-04T17:57:00.784Z,11.70
2019-03-04T17:59:33.417Z,11.70
2019-03-04T18:02:04.962Z,11.60
2019-03-04T18:04:36.415Z,11.60
2019-03-04T18:07:07.860Z,11.60
2019-03-04T18:09:40.385Z,11.60
2019-03-04T18:12:11.800Z,11.60
2019-03-04T18:14:43.202Z,11.60
2019-03-04T18:17:14.627Z,11.60
2019-03-04T18:19:46.096Z,11.50
2019-03-04T18:22:17.372Z,11.50
2019-03-04T18:24:48.825Z,11.50
2019-03-04T18:27:33.740Z,11.50
2019-03-04T18:30:30.546Z,11.40
2019-03-04T18:33:58.366Z,11.30
2019-03-04T18:36:52.589Z,11.10
2019-03-04T18:40:06.781Z,10.90
2019-03-04T18:43:03.277Z,10.80
2019-03-04T18:46:13.962Z,10.70
2019-03-04T18:48:54.185Z,10.60
2019-03-04T18:51:26.224Z,10.50
2019-03-04T18:54:01.129Z,10.40
2019-03-04T18:56:33.620Z,10.40
2019-03-04T18:59:05.200Z,10.30
2019-03-04T19:01:36.538Z,10.20
2019-03-04T19:04:09.101Z,10.20
2019-03-04T19:06:40.566Z,10.10
2019-03-04T19:09:13.401Z,10.00
2019-03-04T19:11:45.338Z,10.00
2019-03-04T19:14:17.197Z,9.90
2019-03-04T19:16:49.269Z,9.90
2019-03-04T19:19:20.751Z,9.90
2019-03-04T19:21:53.217Z,9.80
2019-03-04T19:24:24.933Z,9.80
2019-03-04T19:26:56.268Z,9.80
2019-03-04T19:29:27.685Z,9.70
2019-03-04T19:31:59.069Z,9.70
2019-03-04T19:34:30.505Z,9.70
2019-03-04T19:37:01.804Z,9.70
2019-03-04T19:39:34.215Z,9.70
2019-03-04T19:42:05.720Z,9.70
2019-03-04T19:44:37.256Z,9.70
2019-03-04T19:47:09.556Z,9.80
2019-03-04T19:49:41.008Z,9.80
2019-03-04T19:52:12.460Z,9.80
2019-03-04T19:54:43.953Z,9.80
2019-03-04T19:57:15.393Z,9.90
2019-03-04T19:59:46.975Z,9.90
2019-03-04T20:02:18.504Z,9.90
2019-03-04T20:04:51.045Z,10.00
2019-03-04T20:07:22.766Z,9.90
2019-03-04T20:09:55.424Z,9.90
2019-03-04T20:12:28.055Z,10.00
2019-03-04T20:14:59.556Z,10.00
2019-03-04T20:17:30.995Z,10.00
2019-03-04T20:20:02.404Z,10.00
2019-03-04T20:22:33.849Z,10.00
2019-03-04T20:25:07.101Z,10.00
2019-03-04T20:27:38.596Z,10.00
2019-03-04T20:30:10.785Z,9.90
2019-03-04T20:32:42.507Z,9.90
2019-03-04T20:35:14.832Z,9.90
2019-03-04T20:37:48.545Z,9.90
2019-03-04T20:40:20.078Z,9.90
2019-03-04T20:42:51.425Z,9.90
2019-03-04T20:45:23.910Z,9.90
2019-03-04T20:47:55.413Z,9.90
2019-03-04T20:50:26.852Z,9.90
2019-03-04T20:52:58.246Z,9.90
2019-03-04T20:55:29.642Z,9.80
2019-03-04T20:58:01.055Z,9.80
2019-03-04T21:00:34.218Z,9.90
2019-03-04T21:03:05.611Z,9.80
2019-03-04T21:05:38.357Z,9.90
2019-03-04T21:08:09.747Z,9.80
2019-03-04T21:10:41.250Z,9.80
2019-03-04T21:13:15.828Z,9.80
2019-03-04T21:15:47.332Z,9.80
2019-03-04T21:18:18.869Z,9.80
2019-03-04T21:20:50.516Z,9.90
2019-03-04T21:23:22.152Z,9.90
2019-03-04T21:26:02.829Z,9.80
2019-03-04T21:28:57.161Z,9.90
2019-03-04T21:31:42.101Z,9.90
2019-03-04T21:34:46.620Z,9.90
2019-03-04T21:37:25.313Z,9.90
2019-03-04T21:39:58.180Z,9.90
2019-03-04T21:42:43.030Z,9.90
2019-03-04T21:45:42.136Z,9.90
2019-03-04T21:48:20.106Z,9.90
2019-03-04T21:51:01.890Z,9.90
2019-03-04T21:53:40.532Z,9.90
2019-03-04T21:56:39.469Z,9.90
2019-03-04T21:59:10.940Z,9.90
2019-03-04T22:01:47.574Z,9.90
2019-03-04T22:04:19.080Z,9.90
2019-03-04T22:06:50.515Z,9.90
2019-03-04T22:09:23.317Z,9.80
2019-03-04T22:11:54.681Z,9.80
2019-03-04T22:14:26.071Z,9.80
2019-03-04T22:16:57.446Z,9.70
2019-03-04T22:19:28.827Z,9.70
2019-03-04T22:22:00.155Z,9.70
2019-03-04T22:24:31.639Z,9.60
2019-03-04T22:27:03.068Z,9.60
2019-03-04T22:29:34.446Z,9.50
2019-03-04T22:32:05.856Z,9.50
2019-03-04T22:34:37.210Z,9.50
2019-03-04T22:37:08.588Z,9.40
2019-03-04T22:39:40.199Z,9.40
2019-03-04T22:42:11.553Z,9.40
2019-03-04T22:44:42.967Z,9.40
2019-03-04T22:47:14.289Z,9.40
2019-03-04T22:49:47.442Z,9.30
2019-03-04T22:52:18.775Z,9.30
2019-03-04T22:54:50.045Z,9.30
2019-03-04T22:57:21.468Z,9.30
2019-03-04T22:59:52.952Z,9.20
2019-03-04T23:02:26.282Z,9.20
2019-03-04T23:05:13.649Z,9.20
2019-03-04T23:07:47.688Z,9.20
2019-03-04T23:10:42.288Z,9.20
2019-03-04T23:14:00.661Z,9.20
2019-03-04T23:16:32.801Z,9.20
2019-03-04T23:19:04.181Z,9.20
2019-03-04T23:21:35.609Z,9.20
2019-03-04T23:24:07.016Z,9.20
2019-03-04T23:26:38.537Z,9.30
2019-03-04T23:29:09.888Z,9.30
2019-03-04T23:31:41.228Z,9.30
2019-03-04T23:34:12.589Z,9.30
2019-03-04T23:36:43.956Z,9.40
2019-03-04T23:39:15.286Z,9.40
2019-03-04T23:41:46.708Z,9.40
2019-03-04T23:44:18.113Z,9.40
2019-03-04T23:46:49.403Z,9.40
2019-03-04T23:49:20.865Z,9.40
2019-03-04T23:51:53.237Z,9.40
2019-03-04T23:54:24.586Z,9.40
2019-03-04T23:56:55.877Z,9.50
2019-03-04T23:59:27.145Z,9.50
